Time;durP1;ratioP1;P1;durP2;ratioP2;P2;SDS_P1;SDS_P2;PMS_P1;PMS_P2;Temp;Humidity;BMP_temperature;BMP_pressure;BME280_temperature;BME280_humidity;BME280_pressure;Samples;Min_cycle;Max_cycle;Signal;HPM_P1;HPM_P2
2021/01/24 00:02:17;;;;;;;25.95;18.52;;;;;;;-145.61;100.00;68426.72;4955341;29;20026;-90
2021/01/24 00:04:43;;;;;;;26.15;17.55;;;;;;;-145.61;100.00;68426.72;4975718;28;20019;-90
2021/01/24 00:07:08;;;;;;;23.48;16.80;;;;;;;-145.61;100.00;68426.72;4959385;29;20027;-90
2021/01/24 00:09:33;;;;;;;26.25;18.27;;;;;;;-145.61;100.00;68426.72;4959420;28;20109;-89
2021/01/24 00:11:59;;;;;;;25.50;18.02;;;;;;;-145.61;100.00;68426.72;4960131;29;20360;-90
2021/01/24 00:14:24;;;;;;;23.35;16.83;;;;;;;-145.61;100.00;68426.72;4952954;29;20060;-90
2021/01/24 00:16:50;;;;;;;27.40;19.00;;;;;;;-145.61;100.00;68426.72;4940957;29;20027;-90
2021/01/24 00:19:15;;;;;;;24.60;17.55;;;;;;;-145.61;100.00;68426.72;4939250;29;20027;-90
2021/01/24 00:21:41;;;;;;;23.08;16.95;;;;;;;-145.61;100.00;68426.72;4939665;29;20024;-90
2021/01/24 00:24:06;;;;;;;23.25;17.70;;;;;;;-145.61;100.00;68426.72;4939784;29;20325;-90
2021/01/24 00:26:32;;;;;;;29.55;20.77;;;;;;;-145.61;100.00;68426.72;4939812;29;20146;-90
2021/01/24 00:28:58;;;;;;;25.83;17.50;;;;;;;-145.61;100.00;68426.72;4955923;28;20414;-90
2021/01/24 00:31:23;;;;;;;28.08;20.15;;;;;;;-145.61;100.00;68426.72;4940742;29;20102;-90
2021/01/24 00:33:49;;;;;;;27.05;18.17;;;;;;;-145.61;100.00;68426.72;4939986;29;20114;-90
2021/01/24 00:36:16;;;;;;;28.20;18.45;;;;;;;-145.61;100.00;68426.72;4939702;29;20024;-91
2021/01/24 00:38:41;;;;;;;25.10;17.20;;;;;;;-145.61;100.00;68426.72;4939500;29;20031;-90
2021/01/24 00:41:10;;;;;;;22.85;17.60;;;;;;;-145.61;100.00;68426.72;4940151;29;20079;-90
2021/01/24 00:43:36;;;;;;;24.38;17.52;;;;;;;-145.61;100.00;68426.72;4940046;29;20042;-90
2021/01/24 00:46:02;;;;;;;25.75;18.00;;;;;;;-145.61;100.00;68426.72;4939577;29;20024;-90
2021/01/24 00:48:33;;;;;;;22.23;16.27;;;;;;;-145.61;100.00;68426.72;4939443;29;20371;-90
2021/01/24 00:50:59;;;;;;;30.45;19.95;;;;;;;-145.61;100.00;68426.72;4945495;29;20066;-90
2021/01/24 00:53:25;;;;;;;28.83;19.30;;;;;;;-145.61;100.00;68426.72;4939747;29;20462;-90
2021/01/24 00:55:50;;;;;;;27.88;18.88;;;;;;;-145.61;100.00;68426.72;4939586;29;20055;-90
2021/01/24 00:58:15;;;;;;;30.65;19.58;;;;;;;-145.61;100.00;68426.72;4949171;29;20027;-90
2021/01/24 01:00:41;;;;;;;28.45;18.50;;;;;;;-145.61;100.00;68426.72;4948095;29;20323;-91
2021/01/24 01:03:06;;;;;;;24.90;17.15;;;;;;;-145.61;100.00;68426.72;4939317;29;20079;-90
2021/01/24 01:05:32;;;;;;;25.55;18.75;;;;;;;-145.61;100.00;68426.72;4940355;29;20470;-90
2021/01/24 01:07:57;;;;;;;23.58;16.80;;;;;;;-145.61;100.00;68426.72;4939229;29;20020;-90
2021/01/24 01:10:22;;;;;;;22.63;15.80;;;;;;;-145.61;100.00;68426.72;4939288;29;20054;-91
2021/01/24 01:12:48;;;;;;;25.30;17.83;;;;;;;-145.61;100.00;68426.72;4939052;29;20027;-90
2021/01/24 01:15:15;;;;;;;22.45;16.65;;;;;;;-145.61;100.00;68426.72;4939206;29;20122;-91
2021/01/24 01:17:40;;;;;;;24.40;16.85;;;;;;;-145.61;100.00;68426.72;4939006;29;20035;-91
2021/01/24 01:20:06;;;;;;;22.35;16.05;;;;;;;-145.61;100.00;68426.72;4950446;29;20035;-90
2021/01/24 01:22:31;;;;;;;25.88;16.10;;;;;;;-145.61;100.00;68426.72;4956538;28;20069;-90
2021/01/24 01:24:57;;;;;;;23.27;16.15;;;;;;;-145.61;100.00;68426.72;4940197;29;20063;-91
2021/01/24 01:27:22;;;;;;;25.23;17.10;;;;;;;-145.61;100.00;68426.72;4939246;29;20023;-91
2021/01/24 01:29:48;;;;;;;23.27;16.88;;;;;;;-145.61;100.00;68426.72;4939763;29;20090;-91
2021/01/24 01:32:13;;;;;;;24.63;16.70;;;;;;;-145.61;100.00;68426.72;4949801;29;20024;-91
2021/01/24 01:34:38;;;;;;;25.30;17.00;;;;;;;-145.61;100.00;68426.72;4943973;29;20023;-90
2021/01/24 01:37:04;;;;;;;27.13;18.63;;;;;;;-145.61;100.00;68426.72;4958318;29;20455;-90
2021/01/24 01:39:29;;;;;;;22.48;16.33;;;;;;;-145.61;100.00;68426.72;4958506;29;20098;-90
2021/01/24 01:41:55;;;;;;;24.50;17.13;;;;;;;-145.61;100.00;68426.72;4958041;29;20059;-91
2021/01/24 01:44:20;;;;;;;23.67;16.75;;;;;;;-145.61;100.00;68426.72;4956089;28;20034;-90
2021/01/24 01:46:47;;;;;;;21.17;15.35;;;;;;;-145.61;100.00;68426.72;4938906;29;20047;-90
2021/01/24 01:49:13;;;;;;;22.55;15.98;;;;;;;-145.61;100.00;68426.72;4939047;29;20035;-90
2021/01/24 01:51:38;;;;;;;20.27;15.52;;;;;;;-145.61;100.00;68426.72;4939006;29;20028;-90
2021/01/24 01:54:05;;;;;;;22.85;15.95;;;;;;;-145.61;100.00;68426.72;4939070;29;20023;-90
2021/01/24 01:56:30;;;;;;;21.10;15.93;;;;;;;-145.61;100.00;68426.72;4940991;29;20103;-90
2021/01/24 01:58:55;;;;;;;21.40;15.88;;;;;;;-145.61;100.00;68426.72;4958756;29;20412;-90
2021/01/24 02:01:24;;;;;;;25.45;18.17;;;;;;;-145.61;100.00;68426.72;4956395;28;20150;-90
2021/01/24 02:04:03;;;;;;;22.88;16.88;;;;;;;-145.61;100.00;68426.72;4956774;29;20032;-90
2021/01/24 02:06:41;;;;;;;23.58;17.02;;;;;;;-145.61;100.00;68426.72;4951468;29;20035;-91
2021/01/24 02:09:15;;;;;;;22.45;16.92;;;;;;;-145.61;100.00;68426.72;4951394;28;20046;-91
2021/01/24 02:11:56;;;;;;;23.70;17.25;;;;;;;-145.61;100.00;68426.72;4938831;29;20421;-91
2021/01/24 02:14:59;;;;;;;25.20;18.00;;;;;;;-145.61;100.00;68426.72;4947092;29;20087;-91
2021/01/24 02:17:26;;;;;;;28.50;18.35;;;;;;;-145.61;100.00;68426.72;4956912;29;20135;-90
2021/01/24 02:20:09;;;;;;;30.60;20.80;;;;;;;-145.61;100.00;68426.72;4940214;29;20035;-91
2021/01/24 02:22:39;;;;;;;27.80;20.45;;;;;;;-145.61;100.00;68426.72;4939466;29;20046;-91
2021/01/24 02:25:17;;;;;;;27.70;19.02;;;;;;;-145.61;100.00;68426.72;4954513;28;20024;-91
2021/01/24 02:27:49;;;;;;;27.33;20.10;;;;;;;-145.61;100.00;68426.72;4945222;29;20031;-91
2021/01/24 02:30:35;;;;;;;30.75;20.85;;;;;;;-145.61;100.00;68426.72;4954613;29;20024;-91
2021/01/24 02:33:08;;;;;;;28.48;20.25;;;;;;;-145.61;100.00;68426.72;4939388;29;20031;-91
2021/01/24 02:35:40;;;;;;;28.38;19.92;;;;;;;-145.61;100.00;68426.72;4955053;29;20027;-91
2021/01/24 02:38:07;;;;;;;28.55;20.73;;;;;;;-145.61;100.00;68426.72;4952143;28;20028;-91
2021/01/24 02:40:36;;;;;;;26.85;20.38;;;;;;;-145.61;100.00;68426.72;4939409;29;20032;-91
2021/01/24 02:43:07;;;;;;;26.80;19.48;;;;;;;-145.61;100.00;68426.72;4939145;29;20059;-91
2021/01/24 02:45:35;;;;;;;25.73;19.45;;;;;;;-145.61;100.00;68426.72;4941721;29;20100;-91
2021/01/24 02:48:01;;;;;;;25.88;19.55;;;;;;;-145.61;100.00;68426.72;4941711;29;20090;-91
2021/01/24 02:50:29;;;;;;;26.45;19.10;;;;;;;-145.61;100.00;68426.72;4941749;29;20035;-91
2021/01/24 02:52:59;;;;;;;24.65;19.42;;;;;;;-145.61;100.00;68426.72;4945096;29;20478;-91
2021/01/24 02:55:24;;;;;;;26.13;19.80;;;;;;;-145.61;100.00;68426.72;4941663;29;20390;-92
2021/01/24 02:57:51;;;;;;;28.48;19.45;;;;;;;-145.61;100.00;68426.72;4949667;29;20106;-91
2021/01/24 03:00:17;;;;;;;27.98;19.17;;;;;;;-145.61;100.00;68426.72;4961289;29;20027;-91
2021/01/24 03:02:43;;;;;;;23.85;17.63;;;;;;;-145.61;100.00;68426.72;4961304;28;20023;-92
2021/01/24 03:05:10;;;;;;;22.13;17.00;;;;;;;-145.61;100.00;68426.72;4961060;29;20034;-91
2021/01/24 03:07:35;;;;;;;22.15;16.77;;;;;;;-145.61;100.00;68426.72;4950231;28;20035;-91
2021/01/24 03:10:01;;;;;;;23.25;16.35;;;;;;;-145.61;100.00;68426.72;4953613;29;20308;-91
2021/01/24 03:12:32;;;;;;;21.30;16.13;;;;;;;-145.61;100.00;68426.72;4957318;29;20129;-90
2021/01/24 03:14:59;;;;;;;19.27;14.95;;;;;;;-145.61;100.00;68426.72;4960348;28;20054;-90
2021/01/24 03:17:26;;;;;;;18.60;15.05;;;;;;;-145.61;100.00;68426.72;4960004;29;20031;-90
2021/01/24 03:19:53;;;;;;;19.60;15.50;;;;;;;-145.61;100.00;68426.72;4960261;29;20478;-91
2021/01/24 03:22:19;;;;;;;21.20;15.32;;;;;;;-145.61;100.00;68426.72;4960160;29;20046;-91
2021/01/24 03:24:47;;;;;;;19.63;13.88;;;;;;;-145.61;100.00;68426.72;4958699;29;20479;-91
2021/01/24 03:27:12;;;;;;;17.73;14.52;;;;;;;-145.61;100.00;68426.72;4941010;29;20034;-91
2021/01/24 03:29:38;;;;;;;20.70;16.17;;;;;;;-145.61;100.00;68426.72;4959792;29;20035;-91
2021/01/24 03:32:04;;;;;;;20.42;16.05;;;;;;;-145.61;100.00;68426.72;4951806;28;20086;-91
2021/01/24 03:34:30;;;;;;;17.88;14.82;;;;;;;-145.61;100.00;68426.72;4945558;29;20023;-90
2021/01/24 03:36:57;;;;;;;19.17;15.20;;;;;;;-145.61;100.00;68426.72;4954928;28;20067;-91
2021/01/24 03:39:23;;;;;;;19.13;15.43;;;;;;;-145.61;100.00;68426.72;4939631;29;20031;-91
2021/01/24 03:41:48;;;;;;;20.30;15.88;;;;;;;-145.61;100.00;68426.72;4937595;29;20024;-91
2021/01/24 03:44:14;;;;;;;22.20;16.08;;;;;;;-145.61;100.00;68426.72;4921656;29;20425;-91
2021/01/24 03:46:39;;;;;;;22.52;16.98;;;;;;;-145.61;100.00;68426.72;4922590;29;20075;-91
2021/01/24 03:49:06;;;;;;;20.38;15.88;;;;;;;-145.61;100.00;68426.72;4922513;29;20460;-91
2021/01/24 03:51:32;;;;;;;22.17;17.48;;;;;;;-145.61;100.00;68426.72;4922406;29;20079;-91
2021/01/24 03:53:57;;;;;;;21.98;16.13;;;;;;;-145.61;100.00;68426.72;4921095;29;20028;-91
2021/01/24 03:56:23;;;;;;;22.27;16.70;;;;;;;-145.61;100.00;68426.72;4921433;29;20092;-91
2021/01/24 03:58:48;;;;;;;21.35;16.85;;;;;;;-145.61;100.00;68426.72;4957660;29;20070;-91
2021/01/24 04:01:14;;;;;;;21.30;16.02;;;;;;;-145.61;100.00;68426.72;4959540;28;20027;-91
2021/01/24 04:03:40;;;;;;;23.00;16.25;;;;;;;-145.61;100.00;68426.72;4957852;29;20293;-91
2021/01/24 04:06:05;;;;;;;23.75;17.48;;;;;;;-145.61;100.00;68426.72;4941082;29;20031;-91
2021/01/24 04:08:31;;;;;;;22.50;17.77;;;;;;;-145.61;100.00;68426.72;4940319;29;20306;-91
2021/01/24 04:10:56;;;;;;;22.50;16.55;;;;;;;-145.61;100.00;68426.72;4940285;29;20035;-91
2021/01/24 04:13:22;;;;;;;23.60;17.48;;;;;;;-145.61;100.00;68426.72;4939870;29;20052;-91
2021/01/24 04:15:48;;;;;;;22.08;17.15;;;;;;;-145.61;100.00;68426.72;4954323;29;20031;-91
2021/01/24 04:21:35;;;;;;;23.13;18.15;;;;;;;-145.61;100.00;68426.72;4941141;29;20071;-91
2021/01/24 04:24:00;;;;;;;24.85;18.25;;;;;;;-145.61;100.00;68426.72;4923211;29;20028;-91
2021/01/24 04:26:26;;;;;;;24.15;18.27;;;;;;;-145.61;100.00;68426.72;4920920;29;20420;-91
2021/01/24 04:28:51;;;;;;;26.02;18.50;;;;;;;-145.61;100.00;68426.72;4920892;29;20101;-91
2021/01/24 04:31:17;;;;;;;28.45;19.95;;;;;;;-145.61;100.00;68426.72;4920685;29;20326;-91
2021/01/24 04:33:42;;;;;;;25.02;18.10;;;;;;;-145.61;100.00;68426.72;4921612;29;20102;-91
2021/01/24 04:36:08;;;;;;;26.52;19.20;;;;;;;-145.61;100.00;68426.72;4921659;29;20072;-90
2021/01/24 04:38:33;;;;;;;25.95;19.20;;;;;;;-145.61;100.00;68426.72;4921200;29;20035;-91
2021/01/24 04:40:59;;;;;;;23.38;17.20;;;;;;;-145.61;100.00;68426.72;4921392;29;20039;-91
2021/01/24 04:43:25;;;;;;;26.17;18.23;;;;;;;-145.61;100.00;68426.72;4921611;29;20030;-91
2021/01/24 04:45:55;;;;;;;22.55;17.63;;;;;;;-145.61;100.00;68426.72;4921535;29;20109;-91
2021/01/24 04:48:22;;;;;;;25.20;18.00;;;;;;;-145.61;100.00;68426.72;4921486;29;20020;-91
2021/01/24 04:50:48;;;;;;;24.17;18.45;;;;;;;-145.61;100.00;68426.72;4920736;29;20263;-91
2021/01/24 04:53:14;;;;;;;26.67;18.00;;;;;;;-145.61;100.00;68426.72;4928682;29;20106;-90
2021/01/24 04:55:40;;;;;;;27.60;18.90;;;;;;;-145.61;100.00;68426.72;4958499;29;20062;-90
2021/01/24 04:58:07;;;;;;;24.60;17.13;;;;;;;-145.61;100.00;68426.72;4958890;29;20324;-91
2021/01/24 05:00:32;;;;;;;24.38;16.45;;;;;;;-145.61;100.00;68426.72;4958568;29;20078;-91
2021/01/24 05:02:58;;;;;;;29.92;19.88;;;;;;;-145.61;100.00;68426.72;4959728;29;20031;-91
2021/01/24 05:05:23;;;;;;;25.15;17.75;;;;;;;-145.61;100.00;68426.72;4941974;28;20038;-91
2021/01/24 05:07:56;;;;;;;33.28;21.50;;;;;;;-145.61;100.00;68426.72;4921741;29;20111;-91
2021/01/24 05:10:29;;;;;;;33.90;21.92;;;;;;;-145.61;100.00;68426.72;4920350;29;20056;-91
2021/01/24 05:12:55;;;;;;;29.25;20.60;;;;;;;-145.61;100.00;68426.72;4920371;29;20389;-91
2021/01/24 05:15:22;;;;;;;38.28;25.60;;;;;;;-145.61;100.00;68426.72;4920881;29;20123;-90
2021/01/24 05:17:53;;;;;;;43.35;27.55;;;;;;;-145.61;100.00;68426.72;4921216;29;20409;-91
2021/01/24 05:20:26;;;;;;;37.92;24.20;;;;;;;-145.61;100.00;68426.72;4921529;29;20373;-91
2021/01/24 05:22:54;;;;;;;38.17;24.77;;;;;;;-145.61;100.00;68426.72;4936810;29;20172;-90
2021/01/24 05:25:22;;;;;;;34.67;22.55;;;;;;;-145.61;100.00;68426.72;4941135;29;20074;-91
2021/01/24 05:27:48;;;;;;;32.30;23.02;;;;;;;-145.61;100.00;68426.72;4939941;29;20089;-91
2021/01/24 05:30:22;;;;;;;42.50;24.77;;;;;;;-145.61;100.00;68426.72;4939347;29;20020;-89
2021/01/24 05:32:51;;;;;;;31.48;22.83;;;;;;;-145.61;100.00;68426.72;4951455;29;20100;-91
2021/01/24 05:35:17;;;;;;;33.30;23.75;;;;;;;-145.61;100.00;68426.72;4938806;29;20416;-91
2021/01/24 05:37:46;;;;;;;33.50;23.20;;;;;;;-145.61;100.00;68426.72;4938744;29;20036;-91
2021/01/24 05:40:13;;;;;;;33.10;22.67;;;;;;;-145.61;100.00;68426.72;4939051;29;20105;-91
2021/01/24 05:42:39;;;;;;;30.95;21.85;;;;;;;-145.61;100.00;68426.72;4938901;29;20412;-92
2021/01/24 05:45:16;;;;;;;29.65;20.88;;;;;;;-145.61;100.00;68426.72;4938855;29;20024;-91
2021/01/24 05:47:47;;;;;;;31.20;22.73;;;;;;;-145.61;100.00;68426.72;4939748;29;20031;-91
2021/01/24 05:50:19;;;;;;;32.58;22.67;;;;;;;-145.61;100.00;68426.72;4938659;29;20031;-91
2021/01/24 05:52:49;;;;;;;31.98;22.80;;;;;;;-145.61;100.00;68426.72;4938611;29;20042;-91
2021/01/24 05:55:34;;;;;;;33.83;23.27;;;;;;;-145.61;100.00;68426.72;4938874;29;20472;-91
2021/01/24 05:58:23;;;;;;;31.27;22.38;;;;;;;-145.61;100.00;68426.72;4954641;29;20034;-91
2021/01/24 06:00:51;;;;;;;26.30;20.63;;;;;;;-145.61;100.00;68426.72;4954750;29;20026;-91
2021/01/24 06:03:17;;;;;;;24.95;19.77;;;;;;;-145.61;100.00;68426.72;4938606;29;20059;-91
2021/01/24 06:05:43;;;;;;;14.85;10.70;;;;;;;-145.61;100.00;68426.72;4938574;29;20039;-91
2021/01/24 06:08:10;;;;;;;13.40;9.85;;;;;;;-145.61;100.00;68426.72;4938816;29;20028;-90
2021/01/24 06:10:37;;;;;;;8.30;5.63;;;;;;;-145.61;100.00;68426.72;4938685;29;20038;-91
2021/01/24 06:13:03;;;;;;;4.45;3.25;;;;;;;-145.61;100.00;68426.72;4938619;29;20031;-92
2021/01/24 06:15:31;;;;;;;3.10;2.42;;;;;;;-145.61;100.00;68426.72;4939476;29;20057;-90
2021/01/24 06:17:58;;;;;;;2.10;1.70;;;;;;;-145.61;100.00;68426.72;4941644;29;20047;-90
2021/01/24 06:20:34;;;;;;;3.63;2.60;;;;;;;-145.61;100.00;68426.72;4942071;29;20020;-91
2021/01/24 06:23:13;;;;;;;3.72;2.58;;;;;;;-145.61;100.00;68426.72;4943159;29;20026;-91
2021/01/24 06:25:44;;;;;;;3.22;2.05;;;;;;;-145.61;100.00;68426.72;4942060;29;20368;-91
2021/01/24 06:28:22;;;;;;;2.60;2.20;;;;;;;-145.61;100.00;68426.72;4942170;29;20028;-91
2021/01/24 06:30:49;;;;;;;3.70;2.50;;;;;;;-145.61;100.00;68426.72;4941892;29;20068;-90
2021/01/24 06:33:17;;;;;;;3.25;2.20;;;;;;;-145.61;100.00;68426.72;4942217;29;20040;-91
2021/01/24 06:35:48;;;;;;;2.65;2.00;;;;;;;-145.61;100.00;68426.72;4941953;29;20047;-91
2021/01/24 06:38:32;;;;;;;4.05;2.13;;;;;;;-145.61;100.00;68426.72;4942027;29;20159;-90
2021/01/24 06:41:00;;;;;;;2.90;1.80;;;;;;;-145.61;100.00;68426.72;4953683;29;20094;-90
2021/01/24 06:43:48;;;;;;;2.92;1.75;;;;;;;-145.61;100.00;68426.72;4947481;29;20035;-90
2021/01/24 06:46:26;;;;;;;1.88;1.50;;;;;;;-145.61;100.00;68426.72;4949494;29;20031;-91
2021/01/24 06:48:53;;;;;;;2.17;1.48;;;;;;;-145.61;100.00;68426.72;4961802;29;20031;-90
2021/01/24 06:51:38;;;;;;;2.15;1.40;;;;;;;-145.61;100.00;68426.72;4959113;28;20125;-90
2021/01/24 06:54:23;;;;;;;1.77;1.40;;;;;;;-145.61;100.00;68426.72;4951481;29;20114;-91
2021/01/24 06:56:49;;;;;;;24.40;13.07;;;;;;;-145.61;100.00;68426.72;4958017;29;20090;-91
2021/01/24 06:59:27;;;;;;;15.93;8.93;;;;;;;-145.61;100.00;68426.72;4961618;29;20056;-91
2021/01/24 07:01:52;;;;;;;7.53;4.57;;;;;;;-145.61;100.00;68426.72;4961484;29;20027;-90
2021/01/24 07:07:12;;;;;;;4.43;3.10;;;;;;;-145.61;100.00;68426.72;4942289;29;20096;-90
2021/01/24 07:09:42;;;;;;;5.10;3.90;;;;;;;-145.61;100.00;68426.72;4942300;29;20408;-91
2021/01/24 07:12:08;;;;;;;5.95;4.22;;;;;;;-145.61;100.00;68426.72;4942265;29;20035;-92
2021/01/24 07:14:35;;;;;;;21.88;15.43;;;;;;;-145.61;100.00;68426.72;4942120;29;20401;-91
2021/01/24 07:17:14;;;;;;;16.05;11.93;;;;;;;-145.61;100.00;68426.72;4941042;29;20416;-91
2021/01/24 07:19:51;;;;;;;23.88;18.98;;;;;;;-145.61;100.00;68426.72;4942013;29;20043;-92
2021/01/24 07:22:24;;;;;;;23.98;16.83;;;;;;;-145.61;100.00;68426.72;4941064;29;20058;-91
2021/01/24 07:24:51;;;;;;;19.35;14.07;;;;;;;-145.61;100.00;68426.72;4940950;29;20122;-91
2021/01/24 07:27:22;;;;;;;23.98;17.70;;;;;;;-145.61;100.00;68426.72;4941808;29;20038;-91
2021/01/24 07:29:48;;;;;;;27.77;21.63;;;;;;;-145.61;100.00;68426.72;4941028;29;20028;-93
2021/01/24 07:32:15;;;;;;;25.45;18.77;;;;;;;-145.61;100.00;68426.72;4940579;29;20051;-92
2021/01/24 07:34:42;;;;;;;20.70;16.23;;;;;;;-145.61;100.00;68426.72;4937590;29;20027;-90
2021/01/24 07:37:09;;;;;;;23.08;17.10;;;;;;;-145.61;100.00;68426.72;4931981;29;20117;-91
2021/01/24 07:39:35;;;;;;;24.90;17.88;;;;;;;-145.61;100.00;68426.72;4936079;29;20024;-91
2021/01/24 07:42:02;;;;;;;12.90;10.70;;;;;;;-145.61;100.00;68426.72;4924350;29;20066;-93
2021/01/24 07:44:28;;;;;;;13.90;11.10;;;;;;;-145.61;100.00;68426.72;4940662;29;20028;-92
2021/01/24 07:46:54;;;;;;;14.65;10.85;;;;;;;-145.61;100.00;68426.72;4943036;29;20099;-92
2021/01/24 07:49:20;;;;;;;14.35;11.38;;;;;;;-145.61;100.00;68426.72;4956415;28;20372;-90
2021/01/24 07:51:46;;;;;;;20.70;15.05;;;;;;;-145.61;100.00;68426.72;4941203;29;20057;-91
2021/01/24 07:54:16;;;;;;;17.48;13.25;;;;;;;-145.61;100.00;68426.72;4973096;28;20031;-92
2021/01/24 07:56:43;;;;;;;14.60;10.80;;;;;;;-145.61;100.00;68426.72;4933691;29;20044;-93
2021/01/24 07:59:08;;;;;;;14.32;11.02;;;;;;;-145.61;100.00;68426.72;4931435;29;20408;-91
2021/01/24 08:01:35;;;;;;;12.95;9.38;;;;;;;-145.61;100.00;68426.72;4936801;29;20098;-92
2021/01/24 08:04:01;;;;;;;12.10;9.25;;;;;;;-145.61;100.00;68426.72;4940421;29;20090;-92
2021/01/24 08:06:27;;;;;;;10.05;8.80;;;;;;;-145.61;100.00;68426.72;4936744;29;20035;-91
2021/01/24 08:08:53;;;;;;;10.55;8.30;;;;;;;-145.61;100.00;68426.72;4921469;29;20088;-92
2021/01/24 08:11:19;;;;;;;11.05;7.97;;;;;;;-145.61;100.00;68426.72;4935913;29;20099;-92
2021/01/24 08:13:45;;;;;;;9.85;7.40;;;;;;;-145.61;100.00;68426.72;4952393;28;20063;-92
2021/01/24 08:16:15;;;;;;;5.78;4.28;;;;;;;-145.61;100.00;68426.72;4932746;29;20325;-92
2021/01/24 08:18:44;;;;;;;7.03;5.30;;;;;;;-145.61;100.00;68426.72;4944531;29;20035;-92
2021/01/24 08:21:10;;;;;;;5.10;3.65;;;;;;;-145.61;100.00;68426.72;4933391;29;20428;-91
2021/01/24 08:23:35;;;;;;;6.20;4.30;;;;;;;-145.61;100.00;68426.72;4938998;29;20030;-91
2021/01/24 08:26:02;;;;;;;1.95;1.75;;;;;;;-145.61;100.00;68426.72;4948964;29;20031;-93
2021/01/24 08:28:29;;;;;;;2.67;2.05;;;;;;;-145.61;100.00;68426.72;4939781;29;20422;-91
2021/01/24 08:30:59;;;;;;;2.60;2.10;;;;;;;-145.61;100.00;68426.72;4939705;29;20028;-91
2021/01/24 08:33:25;;;;;;;3.47;1.73;;;;;;;-145.61;100.00;68426.72;4943805;28;20024;-93
2021/01/24 08:35:51;;;;;;;2.55;1.65;;;;;;;-145.61;100.00;68426.72;4933777;29;20386;-90
2021/01/24 08:38:17;;;;;;;1.77;1.42;;;;;;;-145.61;100.00;68426.72;4941694;29;20487;-90
2021/01/24 08:40:42;;;;;;;1.38;1.27;;;;;;;-145.61;100.00;68426.72;4938753;28;20032;-91
2021/01/24 08:43:09;;;;;;;1.40;1.30;;;;;;;-145.61;100.00;68426.72;4940546;29;20043;-89
2021/01/24 08:45:35;;;;;;;1.70;1.60;;;;;;;-145.61;100.00;68426.72;4951866;29;20023;-90
2021/01/24 08:48:04;;;;;;;1.67;1.58;;;;;;;-145.61;100.00;68426.72;4941652;29;20054;-89
2021/01/24 08:50:32;;;;;;;1.33;1.00;;;;;;;-145.61;100.00;68426.72;4938716;29;20019;-91
2021/01/24 08:52:59;;;;;;;2.10;1.70;;;;;;;-145.61;100.00;68426.72;4938975;29;20055;-90
2021/01/24 08:55:24;;;;;;;1.90;0.70;;;;;;;-145.61;100.00;68426.72;4945706;29;20078;-91
2021/01/24 08:57:50;;;;;;;0.50;0.50;;;;;;;-145.61;100.00;68426.72;4940704;29;20031;-91
2021/01/24 09:00:17;;;;;;;2.92;1.70;;;;;;;-145.61;100.00;68426.72;4932115;29;20113;-91
2021/01/24 09:02:43;;;;;;;11.82;6.63;;;;;;;-145.61;100.00;68426.72;4939961;29;20424;-96
2021/01/24 09:05:11;;;;;;;3.72;2.28;;;;;;;-145.61;100.00;68426.72;4941376;29;20110;-94
2021/01/24 09:07:41;;;;;;;3.50;2.25;;;;;;;-145.61;100.00;68426.72;4935328;29;20421;-92
2021/01/24 09:10:33;;;;;;;2.00;1.55;;;;;;;-145.61;100.00;68426.72;4934641;28;20032;-94
2021/01/24 09:13:03;;;;;;;3.15;2.35;;;;;;;-145.61;100.00;68426.72;4938040;28;20098;-94
2021/01/24 09:15:31;;;;;;;3.38;2.72;;;;;;;-145.61;100.00;68426.72;4939110;29;20063;-94
2021/01/24 09:17:58;;;;;;;2.00;1.80;;;;;;;-145.61;100.00;68426.72;4939938;28;20036;-93
2021/01/24 09:20:25;;;;;;;2.42;1.33;;;;;;;-145.61;100.00;68426.72;4938282;29;20353;-93
2021/01/24 09:22:51;;;;;;;2.08;1.40;;;;;;;-145.61;100.00;68426.72;4941192;29;20034;-93
2021/01/24 09:25:17;;;;;;;2.83;1.60;;;;;;;-145.61;100.00;68426.72;4924330;29;20368;-93
2021/01/24 09:27:43;;;;;;;5.90;3.50;;;;;;;-145.61;100.00;68426.72;4927755;29;20416;-93
2021/01/24 09:30:12;;;;;;;5.53;3.75;;;;;;;-145.61;100.00;68426.72;4934467;29;20047;-92
2021/01/24 09:32:38;;;;;;;3.78;2.75;;;;;;;-145.61;100.00;68426.72;4927034;29;20027;-93
2021/01/24 09:35:05;;;;;;;4.00;3.00;;;;;;;-145.61;100.00;68426.72;4947378;28;20046;-93
2021/01/24 09:37:30;;;;;;;6.28;4.05;;;;;;;-145.61;100.00;68426.72;4951710;29;20032;-92
2021/01/24 09:39:56;;;;;;;7.88;5.78;;;;;;;-145.61;100.00;68426.72;4928262;29;20040;-93
2021/01/24 09:42:21;;;;;;;8.75;5.78;;;;;;;-145.61;100.00;68426.72;4933688;29;20069;-92
2021/01/24 09:44:47;;;;;;;10.02;6.88;;;;;;;-145.61;100.00;68426.72;4957830;29;20115;-92
2021/01/24 09:47:12;;;;;;;12.18;7.20;;;;;;;-145.61;100.00;68426.72;4957909;29;20791;-93
2021/01/24 09:49:38;;;;;;;9.25;6.38;;;;;;;-145.61;100.00;68426.72;4950511;29;20016;-92
2021/01/24 09:52:04;;;;;;;8.90;5.93;;;;;;;-145.61;100.00;68426.72;4935739;29;20059;-93
2021/01/24 09:54:29;;;;;;;6.82;5.05;;;;;;;-145.61;100.00;68426.72;4931371;29;20032;-92
2021/01/24 09:56:55;;;;;;;5.97;4.35;;;;;;;-145.61;100.00;68426.72;4942528;29;20086;-93
2021/01/24 09:59:21;;;;;;;3.72;2.70;;;;;;;-145.61;100.00;68426.72;4942735;29;20111;-93
2021/01/24 10:01:47;;;;;;;3.50;2.25;;;;;;;-145.61;100.00;68426.72;4942473;29;20047;-94
2021/01/24 10:04:13;;;;;;;2.70;2.00;;;;;;;-145.61;100.00;68426.72;4939276;29;20032;-94
2021/01/24 10:06:38;;;;;;;2.38;1.70;;;;;;;-145.61;100.00;68426.72;4937951;29;20443;-94
2021/01/24 10:09:05;;;;;;;4.70;3.38;;;;;;;-145.61;100.00;68426.72;4941254;29;20118;-93
2021/01/24 10:11:30;;;;;;;15.05;6.53;;;;;;;-145.61;100.00;68426.72;4940885;29;21451;-92
2021/01/24 10:13:56;;;;;;;10.70;5.25;;;;;;;-145.61;100.00;68426.72;4950223;29;20139;-94
2021/01/24 10:16:21;;;;;;;3.20;2.17;;;;;;;-145.61;100.00;68426.72;4936070;29;20428;-92
2021/01/24 10:18:48;;;;;;;2.83;2.10;;;;;;;-145.61;100.00;68426.72;4941951;29;20419;-93
2021/01/24 10:21:14;;;;;;;3.15;2.10;;;;;;;-145.61;100.00;68426.72;4942029;29;20039;-91
2021/01/24 10:23:40;;;;;;;5.47;3.60;;;;;;;-145.61;100.00;68426.72;4940450;29;20016;-92
2021/01/24 10:26:06;;;;;;;4.25;3.38;;;;;;;-145.61;100.00;68426.72;4934972;29;20036;-90
2021/01/24 10:28:32;;;;;;;4.65;2.97;;;;;;;-145.61;100.00;68426.72;4942105;29;20023;-90
2021/01/24 10:30:58;;;;;;;4.13;2.65;;;;;;;-145.61;100.00;68426.72;4941757;29;20087;-89
2021/01/24 10:33:23;;;;;;;3.72;2.63;;;;;;;-145.61;100.00;68426.72;4942521;29;20063;-90
2021/01/24 10:35:49;;;;;;;2.53;2.17;;;;;;;-145.61;100.00;68426.72;4941790;29;20042;-90
2021/01/24 10:38:21;;;;;;;3.35;2.40;;;;;;;-145.61;100.00;68426.72;4942026;29;20024;-90
2021/01/24 10:40:46;;;;;;;3.28;2.55;;;;;;;-145.61;100.00;68426.72;4958798;29;20027;-90
2021/01/24 10:43:12;;;;;;;5.97;3.72;;;;;;;-145.61;100.00;68426.72;4938753;29;21392;-92
2021/01/24 10:45:38;;;;;;;3.55;2.40;;;;;;;-145.61;100.00;68426.72;4940822;29;20050;-93
2021/01/24 10:48:06;;;;;;;3.75;2.70;;;;;;;-145.61;100.00;68426.72;4938726;29;20420;-94
2021/01/24 10:50:32;;;;;;;1.83;1.63;;;;;;;-145.61;100.00;68426.72;4949242;29;20110;-94
2021/01/24 10:52:58;;;;;;;5.10;3.65;;;;;;;-145.61;100.00;68426.72;4945412;29;20031;-96
2021/01/24 10:55:24;;;;;;;5.43;3.50;;;;;;;-145.61;100.00;68426.72;4946443;29;20031;-94
2021/01/24 10:58:30;;;;;;;3.88;2.88;;;;;;;-145.61;100.00;68426.72;4941388;29;20118;-94
2021/01/24 11:00:55;;;;;;;2.75;1.98;;;;;;;-145.61;100.00;68426.72;4941518;29;20036;-90
2021/01/24 11:03:21;;;;;;;2.08;1.55;;;;;;;-145.61;100.00;68426.72;4940310;29;20034;-93
2021/01/24 11:05:46;;;;;;;1.23;1.13;;;;;;;-145.61;100.00;68426.72;4942239;29;20132;-95
2021/01/24 11:08:11;;;;;;;3.00;2.25;;;;;;;-145.61;100.00;68426.72;4940016;29;20028;-93
2021/01/24 11:10:37;;;;;;;1.25;1.15;;;;;;;-145.61;100.00;68426.72;4940955;29;20033;-91